Time;durP1;ratioP1;P1;durP2;ratioP2;P2;SDS_P1;SDS_P2;PMS_P1;PMS_P2;Temp;Humidity;BMP_temperature;BMP_pressure;BME280_temperature;BME280_humidity;BME280_pressure;Samples;Min_cycle;Max_cycle;Signal;HPM_P1;HPM_P2
2023/02/22 00:02:10;;;;;;;2.90;1.50;;;;;;;9.96;53.62;101101.05;106852;1270;22567;-59
2023/02/22 00:04:39;;;;;;;2.80;1.70;;;;;;;9.98;53.69;101103.83;106879;1270;25352;-59
2023/02/22 00:07:07;;;;;;;1.60;1.40;;;;;;;10.00;53.92;101101.19;106858;1269;25352;-59
2023/02/22 00:09:37;;;;;;;2.60;1.60;;;;;;;10.01;54.13;101101.70;106771;1272;22548;-59
2023/02/22 00:12:07;;;;;;;2.70;1.90;;;;;;;10.03;54.31;101100.80;106859;1268;25374;-59
2023/02/22 00:14:35;;;;;;;3.10;1.80;;;;;;;10.06;54.30;101102.50;106759;1270;25367;-59
2023/02/22 00:17:04;;;;;;;3.60;1.70;;;;;;;10.07;54.57;101093.98;106816;1270;25380;-59
2023/02/22 00:19:33;;;;;;;3.90;1.70;;;;;;;10.09;54.67;101097.60;106816;1269;25341;-59
2023/02/22 00:22:03;;;;;;;3.90;1.80;;;;;;;10.12;54.71;101095.70;106810;1269;25368;-59
2023/02/22 00:24:34;;;;;;;2.00;1.50;;;;;;;10.14;54.83;101089.58;106844;1273;25350;-59
2023/02/22 00:27:04;;;;;;;2.30;1.60;;;;;;;10.17;54.73;101088.16;106853;1269;22648;-59
2023/02/22 00:29:35;;;;;;;4.80;3.40;;;;;;;10.21;54.89;101083.41;106830;1270;25380;-59
2023/02/22 00:32:04;;;;;;;3.50;2.00;;;;;;;10.23;54.87;101086.14;106791;1271;22520;-59
2023/02/22 00:34:33;;;;;;;3.10;1.70;;;;;;;10.26;54.84;101089.41;106825;1254;25493;-59
2023/02/22 00:37:03;;;;;;;4.10;1.50;;;;;;;10.27;54.70;101091.80;106951;1268;22622;-59
2023/02/22 00:39:31;;;;;;;2.20;1.70;;;;;;;10.30;54.72;101097.67;106963;1270;22571;-59
2023/02/22 00:42:20;;;;;;;2.30;1.70;;;;;;;10.32;54.73;101101.80;106773;1270;25488;-59
2023/02/22 00:44:49;;;;;;;2.00;1.60;;;;;;;10.35;54.60;101100.20;106748;1270;25334;-59
2023/02/22 00:47:17;;;;;;;2.40;1.60;;;;;;;10.38;54.57;101111.92;106062;1270;1003412;-59
2023/02/22 00:49:45;;;;;;;3.60;1.50;;;;;;;10.40;54.33;101120.23;106706;1276;23869;-59
2023/02/22 00:52:15;;;;;;;4.70;2.20;;;;;;;10.42;54.29;101117.77;106736;1273;22624;-59
2023/02/22 00:54:44;;;;;;;2.10;1.40;;;;;;;10.44;54.22;101121.04;106016;1270;1003686;-59
2023/02/22 00:57:12;;;;;;;1.80;1.20;;;;;;;10.45;54.11;101122.40;106498;1270;25524;-59
2023/02/22 00:59:41;;;;;;;1.40;1.30;;;;;;;10.46;53.99;101126.39;106651;1269;25340;-59
2023/02/22 01:02:10;;;;;;;3.40;1.80;;;;;;;10.46;53.87;101131.92;106731;1273;22872;-60
2023/02/22 01:04:40;;;;;;;2.50;1.40;;;;;;;10.47;53.87;101135.55;106728;1270;25242;-59
2023/02/22 01:07:13;;;;;;;2.30;1.60;;;;;;;10.47;53.69;101135.54;106797;1270;25495;-59
2023/02/22 01:09:43;;;;;;;1.70;1.40;;;;;;;10.47;53.49;101134.86;106757;1262;22534;-59
2023/02/22 01:12:16;;;;;;;4.10;1.50;;;;;;;10.47;53.49;101138.15;106420;1277;25328;-59
2023/02/22 01:14:45;;;;;;;2.50;1.60;;;;;;;10.46;53.27;101136.96;106703;1269;25377;-59
2023/02/22 01:17:13;;;;;;;2.20;1.70;;;;;;;10.46;53.34;101136.09;106854;1269;25324;-59
2023/02/22 01:19:42;;;;;;;1.40;1.30;;;;;;;10.45;53.17;101136.12;106795;1272;22539;-59
2023/02/22 01:22:11;;;;;;;2.80;1.20;;;;;;;10.43;53.12;101133.18;106853;1268;25363;-59
2023/02/22 01:24:39;;;;;;;1.90;1.30;;;;;;;10.40;53.05;101132.71;106901;1269;24251;-59
2023/02/22 01:27:09;;;;;;;2.00;1.40;;;;;;;10.37;52.96;101130.16;106092;1268;1016310;-58
2023/02/22 01:29:38;;;;;;;2.90;1.40;;;;;;;10.34;53.02;101128.30;106884;1268;25449;-59
2023/02/22 01:32:07;;;;;;;2.90;1.50;;;;;;;10.32;52.96;101128.85;106822;1268;24332;-59
2023/02/22 01:34:35;;;;;;;2.80;1.60;;;;;;;10.29;52.81;101131.15;106839;1273;22526;-59
2023/02/22 01:37:05;;;;;;;2.00;1.40;;;;;;;10.29;52.88;101136.17;106875;1269;25344;-59
2023/02/22 01:39:33;;;;;;;1.70;1.20;;;;;;;10.28;52.77;101137.40;106862;1268;24217;-59
2023/02/22 01:42:03;;;;;;;5.30;3.40;;;;;;;10.28;52.88;101134.81;106765;1272;25497;-59
2023/02/22 01:44:33;;;;;;;2.40;1.50;;;;;;;10.27;52.87;101138.10;106061;1259;1003701;-58
2023/02/22 01:47:03;;;;;;;2.10;1.60;;;;;;;10.27;52.90;101144.52;107039;1268;22522;-58
2023/02/22 01:49:46;;;;;;;3.20;1.80;;;;;;;10.27;52.85;101143.31;106834;1268;25446;-59
2023/02/22 01:52:17;;;;;;;2.70;1.40;;;;;;;10.26;52.82;101144.52;106766;1273;22531;-59
2023/02/22 01:54:51;;;;;;;2.40;1.40;;;;;;;10.27;52.85;101148.86;106490;1279;26961;-59
2023/02/22 01:57:31;;;;;;;3.70;1.70;;;;;;;10.27;52.95;101154.77;105929;1271;1003639;-58
2023/02/22 02:00:11;;;;;;;3.40;2.00;;;;;;;10.26;52.85;101155.13;106624;1272;25349;-59
2023/02/22 02:02:46;;;;;;;3.00;1.50;;;;;;;10.25;52.88;101156.70;106716;1263;25348;-59
2023/02/22 02:05:16;;;;;;;2.30;1.50;;;;;;;10.24;52.75;101156.89;106613;1272;24286;-58
2023/02/22 02:07:48;;;;;;;2.90;1.60;;;;;;;10.23;52.48;101165.74;105954;1272;1002865;-59
2023/02/22 02:10:20;;;;;;;3.80;1.50;;;;;;;10.20;52.51;101162.66;106475;1275;25350;-59
2023/02/22 02:12:49;;;;;;;3.80;1.90;;;;;;;10.18;52.28;101164.61;105930;1273;1003611;-59
2023/02/22 02:15:27;;;;;;;2.80;1.70;;;;;;;10.13;52.46;101163.63;106595;1273;25348;-59
2023/02/22 02:18:00;;;;;;;3.00;1.70;;;;;;;10.08;52.49;101162.95;106226;1277;23307;-59
2023/02/22 02:20:56;;;;;;;2.70;1.40;;;;;;;10.04;52.31;101172.36;106601;1273;25467;-59
2023/02/22 02:23:47;;;;;;;2.10;1.60;;;;;;;10.02;52.26;101174.30;105970;1272;1003790;-58
2023/02/22 02:26:24;;;;;;;3.20;1.50;;;;;;;10.01;51.89;101178.49;105933;1270;1003764;-58
2023/02/22 02:29:17;;;;;;;3.00;1.50;;;;;;;9.98;51.66;101176.09;106846;1271;23885;-59
2023/02/22 02:32:04;;;;;;;4.30;1.50;;;;;;;9.95;51.24;101172.50;106815;1271;22570;-59
2023/02/22 02:35:31;;;;;;;2.80;1.70;;;;;;;9.90;51.04;101179.30;106036;1271;1003094;-59
2023/02/22 02:38:33;;;;;;;4.60;1.50;;;;;;;9.88;51.03;101179.34;105795;1284;25381;-59
2023/02/22 02:41:04;;;;;;;4.40;1.60;;;;;;;9.88;50.88;101186.27;105898;1284;25425;-59
2023/02/22 02:43:39;;;;;;;5.10;1.40;;;;;;;9.89;50.57;101195.10;105720;1274;22776;-59
2023/02/22 02:46:19;;;;;;;4.50;1.40;;;;;;;9.90;50.65;101201.48;105810;1284;22562;-58
2023/02/22 02:48:56;;;;;;;2.50;1.80;;;;;;;9.93;50.67;101204.59;104903;1286;1002739;-59
2023/02/22 02:51:28;;;;;;;3.10;1.60;;;;;;;9.93;50.38;101207.35;105147;1284;1003104;-58
2023/02/22 02:53:59;;;;;;;3.40;1.90;;;;;;;9.94;50.31;101212.71;105894;1284;25412;-58
2023/02/22 02:56:29;;;;;;;3.00;1.60;;;;;;;9.94;50.27;101214.61;105921;1283;22544;-58
2023/02/22 02:58:58;;;;;;;2.50;1.80;;;;;;;9.94;50.09;101211.67;105694;1286;25484;-58
2023/02/22 03:01:32;;;;;;;2.60;1.30;;;;;;;9.92;50.04;101217.23;105983;1282;25351;-58
2023/02/22 03:04:25;;;;;;;3.10;1.80;;;;;;;9.91;50.18;101224.02;105218;1284;1002539;-58
2023/02/22 03:07:02;;;;;;;4.30;2.20;;;;;;;9.90;50.27;101225.77;105706;1287;24302;-58
2023/02/22 03:09:33;;;;;;;5.10;2.20;;;;;;;9.88;50.34;101222.48;105677;1286;24270;-58
2023/02/22 03:12:32;;;;;;;5.90;2.60;;;;;;;9.88;50.32;101222.83;105752;1286;25490;-59
2023/02/22 03:15:20;;;;;;;4.90;2.20;;;;;;;9.88;50.28;101228.89;106257;1273;22537;-59
2023/02/22 03:17:55;;;;;;;3.20;1.70;;;;;;;9.90;50.42;101234.42;106510;1273;22655;-59
2023/02/22 03:20:30;;;;;;;2.50;1.70;;;;;;;9.90;50.23;101238.58;106556;1278;25295;-59
2023/02/22 03:23:23;;;;;;;3.60;1.90;;;;;;;9.91;50.17;101240.66;106552;1274;22549;-58
2023/02/22 03:25:56;;;;;;;3.50;1.90;;;;;;;9.89;50.24;101237.73;106403;1276;25568;-58
2023/02/22 03:28:25;;;;;;;2.50;1.60;;;;;;;9.88;50.38;101248.30;106566;1274;24241;-59
2023/02/22 03:30:57;;;;;;;3.00;1.90;;;;;;;9.84;50.37;101251.98;106444;1274;25380;-58
2023/02/22 03:33:32;;;;;;;2.70;1.50;;;;;;;9.81;50.66;101249.93;106266;1278;25367;-58
2023/02/22 03:36:08;;;;;;;2.80;1.50;;;;;;;9.77;50.69;101236.64;105750;1273;1003523;-58
2023/02/22 03:38:38;;;;;;;2.50;1.60;;;;;;;9.73;50.61;101239.10;106347;1277;25467;-59
2023/02/22 03:41:09;;;;;;;2.50;1.50;;;;;;;9.69;50.63;101245.05;106341;1281;25345;-58
2023/02/22 03:43:42;;;;;;;3.40;1.60;;;;;;;9.66;50.69;101249.41;106449;1276;25365;-59
2023/02/22 03:46:13;;;;;;;3.20;1.90;;;;;;;9.70;50.74;101246.59;106201;1268;1003797;-59
2023/02/22 03:48:59;;;;;;;4.90;1.50;;;;;;;9.70;50.66;101242.26;106797;1270;22540;-59
2023/02/22 03:51:30;;;;;;;2.10;1.30;;;;;;;9.71;50.49;101235.33;106876;1271;22597;-58
2023/02/22 03:54:00;;;;;;;3.50;1.90;;;;;;;9.70;50.15;101238.45;106875;1270;22527;-59
2023/02/22 03:56:37;;;;;;;3.20;1.90;;;;;;;9.68;49.97;101248.01;106900;1268;25360;-58
2023/02/22 03:59:07;;;;;;;4.10;1.70;;;;;;;9.68;50.00;101254.08;106518;1279;22540;-59
2023/02/22 04:01:36;;;;;;;3.30;1.80;;;;;;;9.67;49.78;101258.58;106655;1271;22532;-59
2023/02/22 04:04:06;;;;;;;3.20;1.50;;;;;;;9.65;49.74;101263.61;106668;1272;25704;-59
2023/02/22 04:06:36;;;;;;;4.80;2.20;;;;;;;9.62;49.70;101258.61;106800;1272;22576;-59
2023/02/22 04:09:07;;;;;;;2.00;1.50;;;;;;;9.58;49.76;101253.29;106667;1271;25497;-59
2023/02/22 04:11:36;;;;;;;4.10;1.70;;;;;;;9.54;49.63;101256.97;106413;1272;25315;-58
2023/02/22 04:14:05;;;;;;;2.80;1.60;;;;;;;9.51;49.61;101259.26;106742;1271;25366;-58
2023/02/22 04:16:33;;;;;;;4.40;2.30;;;;;;;9.47;49.53;101256.52;105674;1277;1003002;-58
2023/02/22 04:19:05;;;;;;;3.20;1.60;;;;;;;9.43;49.67;101264.52;106699;1272;23886;-59
2023/02/22 04:21:34;;;;;;;5.40;1.80;;;;;;;9.41;49.88;101259.69;106695;1271;25540;-59
2023/02/22 04:24:04;;;;;;;3.00;1.60;;;;;;;9.39;49.69;101260.57;105970;1271;1003289;-59
2023/02/22 04:26:33;;;;;;;6.30;2.00;;;;;;;9.37;49.98;101269.94;106657;1273;22546;-60
2023/02/22 04:29:03;;;;;;;3.20;1.60;;;;;;;9.37;49.95;101277.05;106750;1271;24221;-59
2023/02/22 04:31:37;;;;;;;3.50;1.60;;;;;;;9.36;50.20;101281.55;106738;1269;25358;-59
2023/02/22 04:34:07;;;;;;;3.80;2.00;;;;;;;9.36;50.22;101281.03;106867;1268;25363;-59
2023/02/22 04:36:41;;;;;;;4.00;2.00;;;;;;;9.35;50.09;101280.70;106794;1275;25346;-59
2023/02/22 04:39:10;;;;;;;4.90;1.90;;;;;;;9.33;50.05;101283.83;106842;1269;24224;-59
2023/02/22 04:41:38;;;;;;;3.60;2.00;;;;;;;9.25;50.13;101287.53;106823;1270;25411;-59
2023/02/22 04:44:08;;;;;;;3.50;1.60;;;;;;;9.18;50.18;101293.13;106803;1268;25250;-59
2023/02/22 04:46:37;;;;;;;3.20;1.80;;;;;;;9.10;50.18;101297.85;106792;1268;25348;-59
2023/02/22 04:49:09;;;;;;;3.40;1.70;;;;;;;9.03;50.15;101302.92;106840;1271;25390;-59
2023/02/22 04:51:41;;;;;;;4.40;2.10;;;;;;;8.98;50.36;101313.50;106153;1268;1002880;-58
2023/02/22 04:54:16;;;;;;;3.40;2.40;;;;;;;9.01;50.33;101316.09;106724;1269;25301;-58
2023/02/22 04:56:47;;;;;;;2.40;2.00;;;;;;;8.97;50.24;101321.48;106790;1273;22522;-59
2023/02/22 04:59:22;;;;;;;5.70;2.30;;;;;;;8.91;50.18;101318.39;106985;1268;25341;-58
2023/02/22 05:01:56;;;;;;;3.70;2.20;;;;;;;8.81;50.35;101323.13;106812;1268;25434;-57
2023/02/22 05:04:26;;;;;;;5.30;2.30;;;;;;;8.73;50.71;101325.94;106838;1268;26501;-57
2023/02/22 05:06:55;;;;;;;3.60;2.00;;;;;;;8.67;50.86;101336.52;106870;1268;25880;-58
2023/02/22 05:09:24;;;;;;;6.20;2.40;;;;;;;8.63;51.03;101337.41;107021;1268;25349;-58
2023/02/22 05:11:53;;;;;;;3.60;2.20;;;;;;;8.61;51.25;101343.82;106066;1268;1003232;-57
2023/02/22 05:14:25;;;;;;;5.40;2.40;;;;;;;8.58;51.15;101352.98;106805;1257;25325;-58
2023/02/22 05:16:55;;;;;;;4.70;2.30;;;;;;;8.59;51.15;101359.58;106850;1269;22649;-58
2023/02/22 05:19:23;;;;;;;4.30;2.00;;;;;;;8.59;51.27;101359.56;106094;1253;1003417;-58
2023/02/22 05:21:52;;;;;;;5.70;2.80;;;;;;;8.59;51.22;101362.51;106785;1269;25431;-56
2023/02/22 05:24:21;;;;;;;6.00;2.80;;;;;;;8.55;51.48;101369.26;106889;1269;22536;-57
2023/02/22 05:26:50;;;;;;;6.30;2.70;;;;;;;8.54;51.69;101373.76;106863;1268;23895;-58
2023/02/22 05:29:19;;;;;;;6.70;3.00;;;;;;;8.55;51.88;101370.48;106060;1268;1003518;-59
2023/02/22 05:31:47;;;;;;;6.00;3.70;;;;;;;8.59;51.81;101372.70;106825;1268;22629;-58
2023/02/22 05:34:16;;;;;;;4.20;2.10;;;;;;;8.63;51.80;101376.15;106878;1270;22531;-58
2023/02/22 05:36:45;;;;;;;6.40;2.60;;;;;;;8.67;51.84;101385.65;106860;1268;25352;-58
2023/02/22 05:39:14;;;;;;;6.40;3.00;;;;;;;8.72;51.90;101391.15;106177;1254;1003472;-58
2023/02/22 05:41:42;;;;;;;8.90;3.10;;;;;;;8.75;51.94;101400.99;106660;1271;25356;-61
2023/02/22 05:44:11;;;;;;;7.80;3.30;;;;;;;8.80;52.05;101403.05;106584;1268;24269;-58
2023/02/22 05:46:39;;;;;;;7.70;2.60;;;;;;;8.85;52.03;101407.88;106596;1269;25357;-59
2023/02/22 05:49:08;;;;;;;5.50;2.20;;;;;;;8.91;51.68;101414.95;106607;1269;25415;-58
2023/02/22 05:51:36;;;;;;;5.40;2.20;;;;;;;8.97;51.34;101417.00;106367;1269;25362;-58
2023/02/22 05:54:05;;;;;;;6.70;2.80;;;;;;;9.03;51.28;101425.27;106903;1269;25408;-58
2023/02/22 05:56:35;;;;;;;4.20;2.40;;;;;;;9.10;51.02;101427.31;106032;1268;1005719;-60
2023/02/22 05:59:03;;;;;;;5.20;2.90;;;;;;;9.16;50.65;101421.91;106809;1269;22567;-58
2023/02/22 06:01:32;;;;;;;4.70;2.50;;;;;;;9.18;50.41;101421.91;106192;1268;1003503;-58
2023/02/22 06:04:01;;;;;;;5.80;2.40;;;;;;;9.19;50.31;101425.53;106836;1268;25524;-58
2023/02/22 06:06:29;;;;;;;5.50;2.50;;;;;;;9.20;50.41;101433.66;106793;1269;22547;-58
2023/02/22 06:08:58;;;;;;;5.20;2.30;;;;;;;9.20;50.49;101437.48;106776;1268;25393;-58
2023/02/22 06:11:26;;;;;;;3.00;2.10;;;;;;;9.20;50.44;101440.59;106822;1268;25356;-58
2023/02/22 06:13:58;;;;;;;5.40;2.40;;;;;;;9.23;50.51;101440.92;106081;1272;1003861;-57
2023/02/22 06:16:27;;;;;;;6.20;2.50;;;;;;;9.27;50.34;101444.02;106840;1273;25345;-57
2023/02/22 06:18:55;;;;;;;4.70;2.30;;;;;;;9.31;50.41;101447.81;106790;1269;25304;-57
2023/02/22 06:21:24;;;;;;;10.30;2.80;;;;;;;9.36;50.31;101448.81;106827;1269;25352;-58
2023/02/22 06:23:52;;;;;;;4.20;2.30;;;;;;;9.48;50.40;101454.46;106450;1269;22642;-58
2023/02/22 06:26:21;;;;;;;5.20;2.20;;;;;;;9.60;50.14;101458.88;106789;1274;26564;-58
2023/02/22 06:28:50;;;;;;;5.10;2.30;;;;;;;9.72;50.05;101471.95;106080;1271;1003379;-58
2023/02/22 06:31:20;;;;;;;4.30;2.50;;;;;;;9.83;49.72;101474.30;106823;1268;22643;-59
2023/02/22 06:33:48;;;;;;;5.00;2.70;;;;;;;9.94;49.49;101474.92;106909;1268;25523;-58
2023/02/22 06:36:17;;;;;;;4.50;2.30;;;;;;;10.01;49.31;101470.36;106053;1255;1002941;-59
2023/02/22 06:38:45;;;;;;;4.40;2.20;;;;;;;10.09;49.17;101467.70;106858;1268;25352;-58
2023/02/22 06:41:14;;;;;;;5.60;2.50;;;;;;;10.18;48.88;101477.54;106870;1268;24243;-59
2023/02/22 06:43:46;;;;;;;4.80;2.40;;;;;;;10.26;48.59;101487.86;106800;1269;22530;-58
2023/02/22 06:46:14;;;;;;;6.30;3.00;;;;;;;10.34;48.45;101486.92;106868;1253;25327;-59
2023/02/22 06:48:43;;;;;;;6.10;2.70;;;;;;;10.43;48.49;101485.45;106782;1275;25466;-59
2023/02/22 06:51:11;;;;;;;4.00;2.20;;;;;;;10.53;48.46;101486.75;106878;1268;24297;-58
2023/02/22 06:53:44;;;;;;;5.40;2.70;;;;;;;10.65;48.45;101489.56;106764;1271;25440;-59
2023/02/22 06:56:13;;;;;;;4.80;2.50;;;;;;;10.78;47.96;101491.50;106817;1254;22553;-60
2023/02/22 06:58:42;;;;;;;5.00;2.40;;;;;;;10.91;47.43;101488.76;106775;1269;25377;-59
2023/02/22 07:01:10;;;;;;;3.60;2.20;;;;;;;10.97;47.10;101491.46;106895;1268;25348;-58
2023/02/22 07:03:39;;;;;;;6.10;2.40;;;;;;;11.00;46.93;101489.00;106865;1274;24217;-59
2023/02/22 07:06:09;;;;;;;5.20;2.00;;;;;;;11.04;46.98;101487.05;106815;1268;25412;-58
2023/02/22 07:08:39;;;;;;;5.20;2.10;;;;;;;11.13;46.65;101491.95;106826;1268;25376;-59
2023/02/22 07:11:08;;;;;;;3.10;1.90;;;;;;;11.17;46.19;101488.45;106860;1271;25574;-59
2023/02/22 07:13:36;;;;;;;6.90;2.40;;;;;;;11.17;46.02;101487.76;106856;1268;25377;-59
2023/02/22 07:16:07;;;;;;;4.00;2.20;;;;;;;11.15;46.13;101490.20;106891;1268;25398;-58
2023/02/22 07:18:37;;;;;;;5.80;2.40;;;;;;;11.12;45.96;101492.67;106849;1268;25425;-58
2023/02/22 07:21:06;;;;;;;5.50;2.50;;;;;;;11.09;45.80;101487.16;106863;1268;22552;-58
2023/02/22 07:23:35;;;;;;;4.70;2.70;;;;;;;11.05;46.12;101492.95;106903;1268;22690;-58
2023/02/22 07:26:04;;;;;;;4.00;2.30;;;;;;;11.02;46.42;101500.62;106801;1269;23898;-60
2023/02/22 07:28:32;;;;;;;7.20;2.50;;;;;;;11.00;46.86;101494.39;106797;1269;24394;-59
2023/02/22 07:31:01;;;;;;;3.80;2.10;;;;;;;10.99;46.99;101493.35;106810;1269;25352;-58
2023/02/22 07:33:29;;;;;;;4.50;1.80;;;;;;;10.97;47.15;101493.20;106153;1268;1003092;-58
2023/02/22 07:35:58;;;;;;;6.10;2.40;;;;;;;10.96;47.13;101497.56;106813;1268;26505;-59
2023/02/22 07:38:27;;;;;;;3.90;2.10;;;;;;;10.95;47.21;101503.29;106810;1271;25422;-58
2023/02/22 07:40:56;;;;;;;5.80;2.90;;;;;;;10.94;47.59;101501.55;106828;1262;22551;-59
2023/02/22 07:43:28;;;;;;;6.50;2.40;;;;;;;10.88;47.51;101504.75;106829;1268;22527;-59
2023/02/22 07:46:01;;;;;;;6.90;2.90;;;;;;;10.82;47.67;101501.37;106192;1268;1019043;-58
2023/02/22 07:48:31;;;;;;;5.30;2.70;;;;;;;10.76;47.73;101507.33;106761;1269;25302;-58
2023/02/22 07:50:59;;;;;;;8.90;3.40;;;;;;;10.72;47.97;101512.40;106964;1268;22619;-59
2023/02/22 07:53:29;;;;;;;5.80;2.60;;;;;;;10.67;48.27;101513.84;106802;1253;26635;-60
2023/02/22 07:56:00;;;;;;;3.10;2.10;;;;;;;10.64;48.49;101511.27;106855;1272;22527;-58
2023/02/22 07:58:30;;;;;;;6.30;2.90;;;;;;;10.61;48.32;101512.33;106749;1269;24376;-59
2023/02/22 08:01:02;;;;;;;4.30;2.30;;;;;;;10.60;48.29;101517.55;106768;1269;22524;-58
2023/02/22 08:03:35;;;;;;;4.20;2.40;;;;;;;10.59;48.11;101515.66;106801;1268;25428;-58
2023/02/22 08:06:05;;;;;;;6.00;2.10;;;;;;;10.59;48.01;101518.43;106084;1269;1003702;-60
2023/02/22 08:08:33;;;;;;;4.90;2.10;;;;;;;10.60;48.20;101519.29;106538;1268;324469;-59
2023/02/22 08:11:02;;;;;;;2.90;2.10;;;;;;;10.61;48.17;101517.72;106120;1268;1003010;-59
2023/02/22 08:13:31;;;;;;;5.00;2.20;;;;;;;10.62;48.41;101517.88;106889;1268;22636;-59
2023/02/22 08:16:02;;;;;;;4.20;2.10;;;;;;;10.62;48.03;101513.89;106814;1274;23138;-59
2023/02/22 08:18:30;;;;;;;6.30;2.40;;;;;;;10.64;47.94;101515.09;106837;1268;22529;-59
2023/02/22 08:20:59;;;;;;;6.30;2.50;;;;;;;10.68;47.82;101517.64;106798;1269;25370;-59
2023/02/22 08:23:28;;;;;;;4.50;2.30;;;;;;;10.72;47.87;101519.16;106805;1269;25520;-59
2023/02/22 08:25:56;;;;;;;5.10;2.30;;;;;;;10.73;47.91;101518.80;106887;1268;25352;-58
2023/02/22 08:28:25;;;;;;;6.10;2.70;;;;;;;10.74;48.04;101521.22;106887;1268;25380;-59
2023/02/22 08:30:54;;;;;;;5.30;2.70;;;;;;;10.74;47.77;101526.61;106764;1269;22527;-59
2023/02/22 08:33:24;;;;;;;6.60;2.80;;;;;;;10.72;47.92;101527.50;106239;1268;1003098;-59
2023/02/22 08:35:53;;;;;;;4.40;2.10;;;;;;;10.68;47.91;101529.45;106714;1276;25441;-58
2023/02/22 08:38:28;;;;;;;4.70;2.60;;;;;;;10.63;47.93;101527.60;106802;1268;25370;-59
2023/02/22 08:40:56;;;;;;;5.20;2.40;;;;;;;10.58;48.10;101526.77;106838;1268;25370;-59
2023/02/22 08:43:25;;;;;;;8.00;2.20;;;;;;;10.56;48.17;101528.87;107209;1268;25516;-58
2023/02/22 08:45:55;;;;;;;6.40;2.10;;;;;;;10.57;48.53;101531.99;106674;1269;25358;-59
2023/02/22 08:48:25;;;;;;;6.40;2.40;;;;;;;10.58;48.88;101539.61;106496;1269;24212;-59
2023/02/22 08:50:55;;;;;;;6.00;2.60;;;;;;;10.60;48.67;101542.19;106923;1269;25351;-59
2023/02/22 08:53:23;;;;;;;5.10;2.00;;;;;;;10.59;48.82;101546.02;107282;1268;23227;-59
2023/02/22 08:55:52;;;;;;;5.50;2.60;;;;;;;10.58;48.86;101550.89;107554;1268;25227;-59
2023/02/22 08:58:22;;;;;;;6.80;2.70;;;;;;;10.58;49.17;101553.84;107059;1263;23221;-59
2023/02/22 09:00:52;;;;;;;4.60;2.10;;;;;;;10.62;49.11;101559.00;106938;1261;25376;-59
2023/02/22 09:03:22;;;;;;;3.50;2.20;;;;;;;10.68;49.24;101558.94;107034;1262;25403;-60
2023/02/22 09:05:51;;;;;;;4.00;2.30;;;;;;;10.77;48.65;101559.21;107262;1268;22525;-59
2023/02/22 09:08:21;;;;;;;6.50;2.30;;;;;;;10.79;48.05;101556.59;106945;1268;22608;-59
2023/02/22 09:10:50;;;;;;;5.00;2.20;;;;;;;10.79;48.26;101563.17;106566;1262;1003036;-59
2023/02/22 09:13:19;;;;;;;4.80;2.10;;;;;;;10.86;49.03;101565.54;107267;1255;22526;-59
2023/02/22 09:15:49;;;;;;;6.30;2.30;;;;;;;10.98;49.05;101566.44;106568;1268;1002351;-59
2023/02/22 09:18:19;;;;;;;3.30;2.20;;;;;;;11.09;48.99;101570.15;107033;1269;25399;-59
2023/02/22 09:20:51;;;;;;;4.60;2.30;;;;;;;11.19;48.58;101572.11;107225;1268;25340;-58
2023/02/22 09:23:24;;;;;;;6.50;2.60;;;;;;;11.27;48.63;101571.32;106964;1268;25425;-59
2023/02/22 09:26:17;;;;;;;8.70;3.30;;;;;;;11.38;48.25;101567.21;107261;1263;25341;-59
2023/02/22 09:28:46;;;;;;;7.90;3.00;;;;;;;11.38;47.79;101566.52;107173;1269;25376;-59
2023/02/22 09:31:16;;;;;;;6.70;2.60;;;;;;;11.34;47.84;101564.80;106742;1266;25347;-59
2023/02/22 09:33:45;;;;;;;3.90;2.10;;;;;;;11.34;48.21;101569.51;106975;1269;25426;-59
2023/02/22 09:36:14;;;;;;;6.80;2.40;;;;;;;11.39;48.47;101565.63;107130;1276;22527;-59
2023/02/22 09:38:43;;;;;;;5.30;2.40;;;;;;;11.45;48.53;101570.42;106762;1270;22615;-59
2023/02/22 09:41:19;;;;;;;5.20;2.60;;;;;;;11.49;48.53;101567.06;106714;1270;25453;-59
2023/02/22 09:43:51;;;;;;;5.20;2.30;;;;;;;11.53;48.33;101573.64;105921;1270;1003734;-59
2023/02/22 09:46:34;;;;;;;4.20;2.20;;;;;;;11.57;48.55;101576.18;106913;1262;24360;-59
2023/02/22 09:49:37;;;;;;;6.60;2.20;;;;;;;11.63;48.40;101576.98;106674;1278;22651;-59
2023/02/22 09:52:09;;;;;;;5.60;2.60;;;;;;;11.69;48.11;101575.70;106494;1278;23094;-58
2023/02/22 09:55:25;;;;;;;5.20;2.30;;;;;;;11.74;47.93;101577.38;106695;1270;24294;-58
2023/02/22 09:57:54;;;;;;;6.10;2.30;;;;;;;11.78;47.31;101579.92;106279;1278;24409;-59
2023/02/22 10:00:28;;;;;;;4.10;2.00;;;;;;;11.81;47.03;101580.59;106354;1271;25407;-59
2023/02/22 10:03:06;;;;;;;7.90;2.50;;;;;;;11.83;47.13;101576.57;106196;1273;24290;-58
2023/02/22 10:05:38;;;;;;;3.00;1.80;;;;;;;11.85;47.03;101573.41;105977;1270;25378;-59
2023/02/22 10:08:17;;;;;;;4.30;2.10;;;;;;;11.84;46.65;101570.30;106100;1272;22658;-59
2023/02/22 10:10:51;;;;;;;4.30;1.90;;;;;;;11.79;46.44;101567.05;106432;1278;24334;-58
2023/02/22 10:13:28;;;;;;;5.20;2.00;;;;;;;11.76;46.44;101562.75;105569;1270;1003857;-59
2023/02/22 10:16:16;;;;;;;4.60;2.30;;;;;;;11.76;46.46;101567.27;106005;1280;24260;-59
2023/02/22 10:19:07;;;;;;;4.40;2.00;;;;;;;11.74;46.33;101564.69;105642;1273;1002946;-59
2023/02/22 10:22:08;;;;;;;6.60;2.20;;;;;;;11.70;46.12;101562.66;106173;1279;25346;-59
2023/02/22 10:25:07;;;;;;;4.30;2.00;;;;;;;11.72;46.22;101557.06;106053;1273;23449;-60
2023/02/22 10:27:43;;;;;;;4.00;2.00;;;;;;;11.77;46.22;101555.94;106022;1280;22549;-58
2023/02/22 10:30:23;;;;;;;5.10;1.90;;;;;;;11.81;45.94;101555.20;106297;1274;22538;-59
2023/02/22 10:33:16;;;;;;;2.40;1.70;;;;;;;11.86;45.99;101553.40;105425;1267;1002660;-59
2023/02/22 10:35:45;;;;;;;4.40;1.90;;;;;;;11.92;46.25;101546.70;106045;1283;25464;-59
2023/02/22 10:38:19;;;;;;;4.50;1.80;;;;;;;11.98;46.01;101548.52;106429;1271;22555;-59
2023/02/22 10:41:09;;;;;;;3.10;1.60;;;;;;;12.03;45.95;101547.06;105739;1281;22600;-58
2023/02/22 10:43:41;;;;;;;4.70;2.00;;;;;;;12.09;45.35;101546.43;106266;1273;25598;-59
2023/02/22 10:46:15;;;;;;;4.40;2.20;;;;;;;12.16;44.93;101541.13;106053;1278;22556;-58
2023/02/22 10:48:47;;;;;;;3.00;1.60;;;;;;;12.22;44.77;101541.01;106741;1268;25463;-59
2023/02/22 10:51:16;;;;;;;5.10;2.00;;;;;;;12.29;44.45;101542.81;106319;1277;24324;-59
2023/02/22 10:53:44;;;;;;;6.40;1.60;;;;;;;12.35;44.00;101543.23;106380;1267;22631;-59
2023/02/22 10:56:20;;;;;;;4.20;1.70;;;;;;;12.37;43.70;101540.77;106608;1273;23186;-59
2023/02/22 10:59:01;;;;;;;4.00;1.60;;;;;;;12.36;43.68;101536.44;106559;1274;22559;-59
2023/02/22 11:01:30;;;;;;;3.00;1.80;;;;;;;12.33;43.39;101537.70;106395;1278;24353;-59
2023/02/22 11:04:16;;;;;;;3.70;1.30;;;;;;;12.26;43.37;101540.77;106662;1275;22533;-58
2023/02/22 11:06:47;;;;;;;3.20;1.90;;;;;;;12.20;43.64;101537.73;106453;1260;25426;-58
2023/02/22 11:09:24;;;;;;;3.90;1.80;;;;;;;12.17;43.91;101536.40;105761;1268;1003777;-58
2023/02/22 11:12:09;;;;;;;10.80;1.90;;;;;;;12.13;43.75;101538.02;106330;1275;25361;-59
2023/02/22 11:14:37;;;;;;;4.30;1.50;;;;;;;12.09;43.66;101538.95;106807;1279;24211;-59
2023/02/22 11:17:16;;;;;;;3.20;1.60;;;;;;;12.04;43.63;101539.74;106872;1272;25354;-58
2023/02/22 11:19:46;;;;;;;4.50;1.40;;;;;;;12.00;43.93;101545.54;106185;1274;1003041;-59
2023/02/22 11:22:43;;;;;;;3.40;1.50;;;;;;;11.97;43.97;101545.77;106013;1265;1003795;-59
2023/02/22 11:25:18;;;;;;;2.00;1.10;;;;;;;11.93;44.16;101544.25;105586;1274;1003170;-58
2023/02/22 11:27:46;;;;;;;3.20;1.20;;;;;;;11.95;44.50;101545.27;106228;1280;24303;-58
2023/02/22 11:30:29;;;;;;;2.00;1.10;;;;;;;11.98;44.59;101550.77;106667;1271;25454;-58
2023/02/22 11:32:59;;;;;;;4.70;1.60;;;;;;;11.98;44.54;101550.77;106280;1280;24130;-57
2023/02/22 11:35:27;;;;;;;3.20;1.20;;;;;;;11.99;44.68;101549.04;106767;1276;24258;-57
2023/02/22 11:38:10;;;;;;;2.80;1.30;;;;;;;11.98;44.77;101548.35;106467;1275;22767;-58
2023/02/22 11:40:39;;;;;;;2.40;1.20;;;;;;;11.96;44.98;101545.93;106358;1277;25436;-58
2023/02/22 11:43:13;;;;;;;1.70;1.40;;;;;;;11.95;45.09;101551.70;106283;1277;22778;-58